رشيد, مصر

10:23 AM EET on مارس 31, 2015 (GMT +0200)
Alexandria International | | Change Station
CLOSE
Current Station
Airport
Location: Alexandria,
Elevation: 23 ft
Nearby Weather Stations

Elev 23 ft 31.18 °N, 29.95 °E | Updated 23 minutes ago

Clear
صافية
72 °F
Feels Like 72 °F
N
16
ريح متغير ريح from جنوب

هذا اليوم
High -- | Low -- °F
--% Chance of Precip.
Yesterday
High -- | Low -- °F
Precip. -- في
5:49 AM 6:16 PM
الأحدب الأول, 85% visible
الضغط 29.95 في
وضوح الرؤية -9999.0 أميال
سحابات
نقطة الندى 46 °F
الرطوبة 41%
Rainfall 0.00 في
عمق الثلج Not available.
الأشعة فوق البنفسجية Not available.
Pollen Not available.
جودة الهواء Not available.
Flu Activity Not available.
METAR HEAX 310800Z 19014KT CAVOK 22/08 Q1014 NOSIG

More Conditions Fewer Conditions

الضغط 29.95 في
وضوح الرؤية -9999.0 أميال
سحابات
نقطة الندى 46 °F
الرطوبة 41%
Rainfall 0.00 في
عمق الثلج Not available.
الأشعة فوق البنفسجية Not available.
Pollen Not available.
جودة الهواء Not available.
Flu Activity Not available.
METAR HEAX 310800Z 19014KT CAVOK 22/08 Q1014 NOSIG

More Conditions Fewer Conditions

10-Day Weather Forecast

Almanac

علم الفلك

Mar. 31, 2015 Rise Set
Actual Time
Civil Twilight
Nautical Twilight
Astronomical Twilight
قمر
Length Of Visible Light
طول الیوم
Tomorrow will be .
, % of the Moon is Illuminated

Today's Extremes

Country Highs Country Lows

Community

WunderPhotos

Upload Photos

1,809,732 photos uploaded!

WunderBlogs® & News

Nearby

جودة الهواء

  جودة الهواء AQ Index Pollutant
Not available.

عمق الثلج

Station Depth Elevation

Earthquake Activity

City Distance Mag. Time & Date
Minimum magnitude displayed is 2.5.

Coastal Water Temperatures

مكان درجات الحرارة

Stations

Nearby Weather Stations

Station Location الحرارة رياح باردة نقطة الندى الرطوبة ريح Precip. Elev تحديث Type